sensor_id;sensor_type;location;lat;lon;timestamp;P1;durP1;ratioP1;P2;durP2;ratioP2
19940;SDS011;10132;50.864;5.176;2023-02-20T00:00:04;30.37;;;19.13;;
19940;SDS011;10132;50.864;5.176;2023-02-20T00:02:08;30.20;;;19.10;;
19940;SDS011;10132;50.864;5.176;2023-02-20T00:04:11;29.50;;;19.00;;
19940;SDS011;10132;50.864;5.176;2023-02-20T00:06:13;26.97;;;18.07;;
19940;SDS011;10132;50.864;5.176;2023-02-20T00:08:15;25.93;;;18.30;;
19940;SDS011;10132;50.864;5.176;2023-02-20T00:10:17;27.60;;;17.90;;
19940;SDS011;10132;50.864;5.176;2023-02-20T00:12:19;25.37;;;17.17;;
19940;SDS011;10132;50.864;5.176;2023-02-20T00:14:21;26.23;;;17.40;;
19940;SDS011;10132;50.864;5.176;2023-02-20T00:16:23;26.90;;;18.03;;
19940;SDS011;10132;50.864;5.176;2023-02-20T00:18:25;25.87;;;16.80;;
19940;SDS011;10132;50.864;5.176;2023-02-20T00:20:28;27.60;;;17.03;;
19940;SDS011;10132;50.864;5.176;2023-02-20T00:22:32;26.27;;;15.93;;
19940;SDS011;10132;50.864;5.176;2023-02-20T00:24:34;22.60;;;15.63;;
19940;SDS011;10132;50.864;5.176;2023-02-20T00:26:36;25.50;;;15.80;;
19940;SDS011;10132;50.864;5.176;2023-02-20T00:28:38;24.13;;;15.63;;
19940;SDS011;10132;50.864;5.176;2023-02-20T00:30:41;26.07;;;15.80;;
19940;SDS011;10132;50.864;5.176;2023-02-20T00:32:42;26.33;;;15.90;;
19940;SDS011;10132;50.864;5.176;2023-02-20T00:34:44;24.37;;;14.87;;
19940;SDS011;10132;50.864;5.176;2023-02-20T00:36:48;22.17;;;13.83;;
19940;SDS011;10132;50.864;5.176;2023-02-20T00:38:50;19.80;;;13.23;;
19940;SDS011;10132;50.864;5.176;2023-02-20T00:40:52;24.73;;;13.53;;
19940;SDS011;10132;50.864;5.176;2023-02-20T00:42:53;20.23;;;12.60;;
19940;SDS011;10132;50.864;5.176;2023-02-20T00:44:55;20.40;;;12.63;;
19940;SDS011;10132;50.864;5.176;2023-02-20T00:46:57;23.97;;;12.37;;
19940;SDS011;10132;50.864;5.176;2023-02-20T00:48:59;20.40;;;12.30;;
19940;SDS011;10132;50.864;5.176;2023-02-20T00:51:01;18.27;;;11.83;;
19940;SDS011;10132;50.864;5.176;2023-02-20T00:53:05;18.13;;;11.33;;
19940;SDS011;10132;50.864;5.176;2023-02-20T00:55:07;19.80;;;10.90;;
19940;SDS011;10132;50.864;5.176;2023-02-20T00:57:09;16.20;;;10.10;;
19940;SDS011;10132;50.864;5.176;2023-02-20T00:59:11;18.47;;;11.40;;
19940;SDS011;10132;50.864;5.176;2023-02-20T01:01:13;18.20;;;10.57;;
19940;SDS011;10132;50.864;5.176;2023-02-20T01:03:15;22.20;;;11.53;;
19940;SDS011;10132;50.864;5.176;2023-02-20T01:05:17;18.53;;;10.67;;
19940;SDS011;10132;50.864;5.176;2023-02-20T01:07:19;15.87;;;9.93;;
19940;SDS011;10132;50.864;5.176;2023-02-20T01:09:23;13.77;;;9.20;;
19940;SDS011;10132;50.864;5.176;2023-02-20T01:11:25;20.73;;;10.40;;
19940;SDS011;10132;50.864;5.176;2023-02-20T01:13:27;17.13;;;10.10;;
19940;SDS011;10132;50.864;5.176;2023-02-20T01:15:29;17.93;;;9.67;;
19940;SDS011;10132;50.864;5.176;2023-02-20T01:17:31;17.63;;;9.60;;
19940;SDS011;10132;50.864;5.176;2023-02-20T01:19:33;14.67;;;9.07;;
19940;SDS011;10132;50.864;5.176;2023-02-20T01:21:35;15.37;;;9.40;;
19940;SDS011;10132;50.864;5.176;2023-02-20T01:23:37;14.97;;;9.00;;
19940;SDS011;10132;50.864;5.176;2023-02-20T01:25:40;15.20;;;9.10;;
19940;SDS011;10132;50.864;5.176;2023-02-20T01:27:42;20.37;;;9.23;;
19940;SDS011;10132;50.864;5.176;2023-02-20T01:29:44;15.83;;;9.17;;
19940;SDS011;10132;50.864;5.176;2023-02-20T01:31:46;14.73;;;8.03;;
19940;SDS011;10132;50.864;5.176;2023-02-20T01:33:49;17.17;;;8.27;;
19940;SDS011;10132;50.864;5.176;2023-02-20T01:35:51;14.00;;;7.27;;
19940;SDS011;10132;50.864;5.176;2023-02-20T01:37:52;14.40;;;8.10;;
19940;SDS011;10132;50.864;5.176;2023-02-20T01:39:54;14.00;;;7.17;;
19940;SDS011;10132;50.864;5.176;2023-02-20T01:41:59;17.20;;;6.97;;
19940;SDS011;10132;50.864;5.176;2023-02-20T01:44:02;14.63;;;6.33;;
19940;SDS011;10132;50.864;5.176;2023-02-20T01:48:40;14.33;;;6.87;;
19940;SDS011;10132;50.864;5.176;2023-02-20T01:50:42;14.30;;;6.50;;
19940;SDS011;10132;50.864;5.176;2023-02-20T01:52:46;13.43;;;5.57;;
19940;SDS011;10132;50.864;5.176;2023-02-20T01:54:50;11.20;;;5.93;;
19940;SDS011;10132;50.864;5.176;2023-02-20T01:56:58;14.77;;;5.87;;
19940;SDS011;10132;50.864;5.176;2023-02-20T01:59:02;13.07;;;5.90;;
19940;SDS011;10132;50.864;5.176;2023-02-20T02:01:06;10.03;;;5.50;;
19940;SDS011;10132;50.864;5.176;2023-02-20T02:03:09;10.17;;;5.47;;
19940;SDS011;10132;50.864;5.176;2023-02-20T02:05:13;14.10;;;5.20;;
19940;SDS011;10132;50.864;5.176;2023-02-20T02:07:15;15.27;;;5.47;;
19940;SDS011;10132;50.864;5.176;2023-02-20T02:09:20;12.93;;;5.63;;
19940;SDS011;10132;50.864;5.176;2023-02-20T02:11:28;12.03;;;5.73;;
19940;SDS011;10132;50.864;5.176;2023-02-20T02:13:31;14.60;;;6.23;;
19940;SDS011;10132;50.864;5.176;2023-02-20T02:15:34;11.53;;;5.87;;
19940;SDS011;10132;50.864;5.176;2023-02-20T02:17:41;13.00;;;5.90;;
19940;SDS011;10132;50.864;5.176;2023-02-20T02:23:30;10.40;;;4.97;;
19940;SDS011;10132;50.864;5.176;2023-02-20T02:25:54;11.67;;;5.93;;
19940;SDS011;10132;50.864;5.176;2023-02-20T02:30:40;12.07;;;5.30;;
19940;SDS011;10132;50.864;5.176;2023-02-20T02:33:05;12.43;;;5.10;;
19940;SDS011;10132;50.864;5.176;2023-02-20T02:38:13;10.53;;;5.17;;
19940;SDS011;10132;50.864;5.176;2023-02-20T02:40:24;13.93;;;5.30;;
19940;SDS011;10132;50.864;5.176;2023-02-20T02:42:35;13.17;;;5.20;;
19940;SDS011;10132;50.864;5.176;2023-02-20T02:44:46;13.17;;;5.47;;
19940;SDS011;10132;50.864;5.176;2023-02-20T02:46:57;15.37;;;5.70;;
19940;SDS011;10132;50.864;5.176;2023-02-20T02:49:02;17.63;;;6.37;;
19940;SDS011;10132;50.864;5.176;2023-02-20T02:51:08;13.80;;;5.67;;
19940;SDS011;10132;50.864;5.176;2023-02-20T02:53:15;13.53;;;5.17;;
19940;SDS011;10132;50.864;5.176;2023-02-20T02:55:18;11.43;;;5.17;;
19940;SDS011;10132;50.864;5.176;2023-02-20T02:57:22;12.63;;;5.03;;
19940;SDS011;10132;50.864;5.176;2023-02-20T02:59:28;12.57;;;5.23;;
19940;SDS011;10132;50.864;5.176;2023-02-20T03:01:33;14.40;;;5.53;;
19940;SDS011;10132;50.864;5.176;2023-02-20T03:03:39;13.60;;;5.20;;
19940;SDS011;10132;50.864;5.176;2023-02-20T03:05:46;12.80;;;5.23;;
19940;SDS011;10132;50.864;5.176;2023-02-20T03:07:50;16.00;;;5.70;;
19940;SDS011;10132;50.864;5.176;2023-02-20T03:09:58;16.23;;;5.47;;
19940;SDS011;10132;50.864;5.176;2023-02-20T03:12:03;15.53;;;6.23;;
19940;SDS011;10132;50.864;5.176;2023-02-20T03:14:09;17.47;;;6.53;;
19940;SDS011;10132;50.864;5.176;2023-02-20T03:16:34;15.67;;;6.93;;
19940;SDS011;10132;50.864;5.176;2023-02-20T03:18:42;13.27;;;6.53;;
19940;SDS011;10132;50.864;5.176;2023-02-20T03:20:47;15.30;;;8.13;;
19940;SDS011;10132;50.864;5.176;2023-02-20T03:22:52;18.50;;;9.57;;
19940;SDS011;10132;50.864;5.176;2023-02-20T03:25:02;26.47;;;12.30;;
19940;SDS011;10132;50.864;5.176;2023-02-20T03:27:08;23.63;;;14.10;;
19940;SDS011;10132;50.864;5.176;2023-02-20T03:29:11;26.97;;;16.13;;
19940;SDS011;10132;50.864;5.176;2023-02-20T03:31:18;30.87;;;18.47;;
19940;SDS011;10132;50.864;5.176;2023-02-20T03:33:28;31.30;;;19.27;;
19940;SDS011;10132;50.864;5.176;2023-02-20T03:35:51;33.87;;;19.60;;
19940;SDS011;10132;50.864;5.176;2023-02-20T03:38:13;35.13;;;21.33;;
19940;SDS011;10132;50.864;5.176;2023-02-20T03:40:37;34.90;;;21.73;;
19940;SDS011;10132;50.864;5.176;2023-02-20T03:43:00;27.60;;;19.50;;
19940;SDS011;10132;50.864;5.176;2023-02-20T03:45:24;31.10;;;17.13;;
19940;SDS011;10132;50.864;5.176;2023-02-20T03:47:28;29.67;;;16.70;;
19940;SDS011;10132;50.864;5.176;2023-02-20T03:49:35;26.77;;;15.60;;
19940;SDS011;10132;50.864;5.176;2023-02-20T03:51:40;24.77;;;15.37;;
19940;SDS011;10132;50.864;5.176;2023-02-20T03:53:58;23.70;;;14.80;;
19940;SDS011;10132;50.864;5.176;2023-02-20T03:56:03;20.40;;;14.40;;
19940;SDS011;10132;50.864;5.176;2023-02-20T03:58:08;22.03;;;15.17;;
19940;SDS011;10132;50.864;5.176;2023-02-20T04:00:14;23.10;;;14.43;;
19940;SDS011;10132;50.864;5.176;2023-02-20T04:02:20;19.73;;;14.40;;
19940;SDS011;10132;50.864;5.176;2023-02-20T04:04:27;23.93;;;14.40;;
19940;SDS011;10132;50.864;5.176;2023-02-20T04:06:34;23.93;;;14.30;;
19940;SDS011;10132;50.864;5.176;2023-02-20T04:08:38;23.93;;;15.70;;
19940;SDS011;10132;50.864;5.176;2023-02-20T04:10:46;24.57;;;15.70;;
19940;SDS011;10132;50.864;5.176;2023-02-20T04:12:54;23.30;;;14.93;;
19940;SDS011;10132;50.864;5.176;2023-02-20T04:14:58;22.17;;;15.30;;
19940;SDS011;10132;50.864;5.176;2023-02-20T04:17:04;25.37;;;14.60;;
19940;SDS011;10132;50.864;5.176;2023-02-20T04:19:10;23.17;;;15.37;;
19940;SDS011;10132;50.864;5.176;2023-02-20T04:21:15;26.33;;;15.23;;
19940;SDS011;10132;50.864;5.176;2023-02-20T04:23:21;23.77;;;15.17;;
19940;SDS011;10132;50.864;5.176;2023-02-20T04:25:29;20.43;;;14.40;;
19940;SDS011;10132;50.864;5.176;2023-02-20T04:27:36;18.43;;;12.50;;
19940;SDS011;10132;50.864;5.176;2023-02-20T04:29:39;20.97;;;12.40;;
19940;SDS011;10132;50.864;5.176;2023-02-20T04:31:41;19.13;;;12.83;;
19940;SDS011;10132;50.864;5.176;2023-02-20T04:33:43;23.37;;;12.93;;
19940;SDS011;10132;50.864;5.176;2023-02-20T04:35:45;18.23;;;11.50;;
19940;SDS011;10132;50.864;5.176;2023-02-20T04:37:47;19.27;;;11.17;;
19940;SDS011;10132;50.864;5.176;2023-02-20T04:39:49;21.53;;;11.10;;
19940;SDS011;10132;50.864;5.176;2023-02-20T04:41:51;19.47;;;11.90;;
19940;SDS011;10132;50.864;5.176;2023-02-20T04:43:53;16.27;;;11.07;;
19940;SDS011;10132;50.864;5.176;2023-02-20T04:46:17;19.17;;;11.40;;
19940;SDS011;10132;50.864;5.176;2023-02-20T04:48:19;18.43;;;11.83;;
19940;SDS011;10132;50.864;5.176;2023-02-20T04:50:22;21.27;;;11.40;;
19940;SDS011;10132;50.864;5.176;2023-02-20T04:52:25;17.20;;;10.70;;
19940;SDS011;10132;50.864;5.176;2023-02-20T04:54:27;16.70;;;10.73;;
19940;SDS011;10132;50.864;5.176;2023-02-20T04:56:29;17.07;;;10.70;;
19940;SDS011;10132;50.864;5.176;2023-02-20T04:58:31;16.77;;;10.43;;
19940;SDS011;10132;50.864;5.176;2023-02-20T05:00:36;17.70;;;10.27;;
19940;SDS011;10132;50.864;5.176;2023-02-20T05:02:39;16.30;;;9.87;;
19940;SDS011;10132;50.864;5.176;2023-02-20T05:04:41;16.53;;;10.63;;
19940;SDS011;10132;50.864;5.176;2023-02-20T05:06:45;18.47;;;9.43;;
19940;SDS011;10132;50.864;5.176;2023-02-20T05:08:48;18.33;;;9.90;;
19940;SDS011;10132;50.864;5.176;2023-02-20T05:10:50;17.40;;;9.87;;
19940;SDS011;10132;50.864;5.176;2023-02-20T05:12:52;14.00;;;10.10;;
19940;SDS011;10132;50.864;5.176;2023-02-20T05:14:55;17.80;;;9.50;;
19940;SDS011;10132;50.864;5.176;2023-02-20T05:16:57;18.50;;;10.30;;
19940;SDS011;10132;50.864;5.176;2023-02-20T05:19:00;22.40;;;10.20;;
19940;SDS011;10132;50.864;5.176;2023-02-20T05:21:02;18.83;;;9.83;;
19940;SDS011;10132;50.864;5.176;2023-02-20T05:23:22;16.23;;;10.10;;
19940;SDS011;10132;50.864;5.176;2023-02-20T05:25:24;19.30;;;10.03;;
19940;SDS011;10132;50.864;5.176;2023-02-20T05:27:26;18.73;;;9.93;;
19940;SDS011;10132;50.864;5.176;2023-02-20T05:29:28;17.87;;;9.67;;
19940;SDS011;10132;50.864;5.176;2023-02-20T05:31:30;20.63;;;9.63;;
19940;SDS011;10132;50.864;5.176;2023-02-20T05:33:32;17.80;;;9.50;;
19940;SDS011;10132;50.864;5.176;2023-02-20T05:35:35;18.93;;;10.00;;
19940;SDS011;10132;50.864;5.176;2023-02-20T05:37:39;15.77;;;9.33;;
19940;SDS011;10132;50.864;5.176;2023-02-20T05:39:41;15.37;;;9.40;;
19940;SDS011;10132;50.864;5.176;2023-02-20T05:41:43;12.60;;;9.30;;
19940;SDS011;10132;50.864;5.176;2023-02-20T05:43:45;18.23;;;10.00;;
19940;SDS011;10132;50.864;5.176;2023-02-20T05:45:48;19.40;;;9.23;;
19940;SDS011;10132;50.864;5.176;2023-02-20T05:47:50;16.17;;;9.40;;
19940;SDS011;10132;50.864;5.176;2023-02-20T05:49:52;14.07;;;9.77;;
19940;SDS011;10132;50.864;5.176;2023-02-20T05:51:56;19.33;;;10.00;;
19940;SDS011;10132;50.864;5.176;2023-02-20T05:53:58;15.13;;;9.80;;
19940;SDS011;10132;50.864;5.176;2023-02-20T05:56:00;15.93;;;10.20;;
19940;SDS011;10132;50.864;5.176;2023-02-20T05:58:04;21.30;;;10.30;;
19940;SDS011;10132;50.864;5.176;2023-02-20T06:00:06;18.20;;;9.97;;
19940;SDS011;10132;50.864;5.176;2023-02-20T06:02:09;15.67;;;9.63;;
19940;SDS011;10132;50.864;5.176;2023-02-20T06:04:11;17.53;;;9.03;;
19940;SDS011;10132;50.864;5.176;2023-02-20T06:06:13;15.00;;;9.53;;
19940;SDS011;10132;50.864;5.176;2023-02-20T06:08:17;12.53;;;8.60;;
19940;SDS011;10132;50.864;5.176;2023-02-20T06:10:19;14.60;;;9.30;;
19940;SDS011;10132;50.864;5.176;2023-02-20T06:12:22;17.53;;;9.53;;
19940;SDS011;10132;50.864;5.176;2023-02-20T06:14:24;16.13;;;8.90;;
19940;SDS011;10132;50.864;5.176;2023-02-20T06:16:27;15.50;;;9.53;;
19940;SDS011;10132;50.864;5.176;2023-02-20T06:18:30;15.63;;;9.60;;
19940;SDS011;10132;50.864;5.176;2023-02-20T06:20:32;16.67;;;8.77;;
19940;SDS011;10132;50.864;5.176;2023-02-20T06:22:34;16.70;;;10.00;;
19940;SDS011;10132;50.864;5.176;2023-02-20T06:24:37;17.20;;;9.67;;
19940;SDS011;10132;50.864;5.176;2023-02-20T06:26:39;16.47;;;10.10;;
19940;SDS011;10132;50.864;5.176;2023-02-20T06:28:42;12.77;;;9.37;;
19940;SDS011;10132;50.864;5.176;2023-02-20T06:30:44;18.27;;;9.50;;
19940;SDS011;10132;50.864;5.176;2023-02-20T06:32:46;15.87;;;9.50;;
19940;SDS011;10132;50.864;5.176;2023-02-20T06:34:48;15.93;;;9.67;;
19940;SDS011;10132;50.864;5.176;2023-02-20T06:36:50;15.70;;;9.27;;
19940;SDS011;10132;50.864;5.176;2023-02-20T06:38:52;15.40;;;9.67;;
19940;SDS011;10132;50.864;5.176;2023-02-20T06:40:56;15.40;;;9.37;;
19940;SDS011;10132;50.864;5.176;2023-02-20T06:42:58;16.30;;;10.47;;
19940;SDS011;10132;50.864;5.176;2023-02-20T06:45:00;19.53;;;9.30;;
19940;SDS011;10132;50.864;5.176;2023-02-20T06:47:02;15.73;;;10.00;;
19940;SDS011;10132;50.864;5.176;2023-02-20T06:49:08;16.13;;;9.40;;
19940;SDS011;10132;50.864;5.176;2023-02-20T06:51:10;20.63;;;10.80;;
19940;SDS011;10132;50.864;5.176;2023-02-20T06:53:12;13.70;;;9.73;;
19940;SDS011;10132;50.864;5.176;2023-02-20T06:55:14;16.27;;;9.53;;
19940;SDS011;10132;50.864;5.176;2023-02-20T06:57:17;17.73;;;8.50;;
19940;SDS011;10132;50.864;5.176;2023-02-20T06:59:19;17.70;;;10.13;;
19940;SDS011;10132;50.864;5.176;2023-02-20T07:01:22;15.90;;;10.57;;
19940;SDS011;10132;50.864;5.176;2023-02-20T07:03:27;18.30;;;10.50;;
19940;SDS011;10132;50.864;5.176;2023-02-20T07:05:29;15.77;;;10.10;;
19940;SDS011;10132;50.864;5.176;2023-02-20T07:07:31;15.53;;;10.10;;
19940;SDS011;10132;50.864;5.176;2023-02-20T07:09:33;18.93;;;9.50;;
19940;SDS011;10132;50.864;5.176;2023-02-20T07:11:35;19.03;;;11.23;;
19940;SDS011;10132;50.864;5.176;2023-02-20T07:13:38;19.43;;;10.40;;
19940;SDS011;10132;50.864;5.176;2023-02-20T07:15:40;17.57;;;10.47;;
19940;SDS011;10132;50.864;5.176;2023-02-20T07:17:42;17.17;;;11.30;;
19940;SDS011;10132;50.864;5.176;2023-02-20T07:19:44;19.07;;;11.03;;
19940;SDS011;10132;50.864;5.176;2023-02-20T07:21:46;20.20;;;11.33;;
19940;SDS011;10132;50.864;5.176;2023-02-20T07:23:48;19.23;;;11.07;;
19940;SDS011;10132;50.864;5.176;2023-02-20T07:25:50;16.63;;;10.60;;
19940;SDS011;10132;50.864;5.176;2023-02-20T07:27:52;16.50;;;10.97;;
19940;SDS011;10132;50.864;5.176;2023-02-20T07:29:56;18.67;;;11.47;;
19940;SDS011;10132;50.864;5.176;2023-02-20T07:31:58;22.23;;;12.93;;
19940;SDS011;10132;50.864;5.176;2023-02-20T07:34:00;17.43;;;11.87;;
19940;SDS011;10132;50.864;5.176;2023-02-20T07:36:02;20.23;;;11.67;;
19940;SDS011;10132;50.864;5.176;2023-02-20T07:38:04;21.90;;;13.23;;
19940;SDS011;10132;50.864;5.176;2023-02-20T07:40:06;21.80;;;12.97;;
19940;SDS011;10132;50.864;5.176;2023-02-20T07:42:09;23.10;;;13.03;;
19940;SDS011;10132;50.864;5.176;2023-02-20T07:44:11;20.20;;;12.67;;
19940;SDS011;10132;50.864;5.176;2023-02-20T07:46:15;20.37;;;13.13;;
19940;SDS011;10132;50.864;5.176;2023-02-20T07:48:17;20.50;;;13.53;;
19940;SDS011;10132;50.864;5.176;2023-02-20T07:50:19;19.10;;;12.33;;
19940;SDS011;10132;50.864;5.176;2023-02-20T07:52:21;18.17;;;12.83;;
19940;SDS011;10132;50.864;5.176;2023-02-20T07:54:23;29.13;;;13.03;;
19940;SDS011;10132;50.864;5.176;2023-02-20T07:56:26;23.33;;;14.17;;
19940;SDS011;10132;50.864;5.176;2023-02-20T07:58:28;23.63;;;14.00;;
19940;SDS011;10132;50.864;5.176;2023-02-20T08:00:30;21.37;;;13.07;;
19940;SDS011;10132;50.864;5.176;2023-02-20T08:02:33;18.77;;;12.93;;
19940;SDS011;10132;50.864;5.176;2023-02-20T08:04:35;26.20;;;13.40;;
19940;SDS011;10132;50.864;5.176;2023-02-20T08:06:37;18.73;;;13.40;;
19940;SDS011;10132;50.864;5.176;2023-02-20T08:08:39;21.83;;;13.60;;
19940;SDS011;10132;50.864;5.176;2023-02-20T08:10:41;22.83;;;14.47;;
19940;SDS011;10132;50.864;5.176;2023-02-20T08:12:43;23.03;;;13.97;;
19940;SDS011;10132;50.864;5.176;2023-02-20T08:14:45;20.47;;;12.87;;
19940;SDS011;10132;50.864;5.176;2023-02-20T08:16:50;20.63;;;12.77;;
19940;SDS011;10132;50.864;5.176;2023-02-20T08:18:53;23.47;;;14.07;;
19940;SDS011;10132;50.864;5.176;2023-02-20T08:20:55;21.00;;;14.47;;
19940;SDS011;10132;50.864;5.176;2023-02-20T08:22:57;19.37;;;14.17;;
19940;SDS011;10132;50.864;5.176;2023-02-20T08:25:00;24.13;;;14.53;;
19940;SDS011;10132;50.864;5.176;2023-02-20T08:27:03;23.63;;;15.07;;
19940;SDS011;10132;50.864;5.176;2023-02-20T08:29:05;20.60;;;14.50;;
19940;SDS011;10132;50.864;5.176;2023-02-20T08:31:07;24.17;;;14.80;;
19940;SDS011;10132;50.864;5.176;2023-02-20T08:33:09;22.83;;;14.57;;
19940;SDS011;10132;50.864;5.176;2023-02-20T08:35:12;20.77;;;15.03;;
19940;SDS011;10132;50.864;5.176;2023-02-20T08:37:14;21.10;;;13.97;;
19940;SDS011;10132;50.864;5.176;2023-02-20T08:39:16;25.37;;;15.73;;
19940;SDS011;10132;50.864;5.176;2023-02-20T08:41:18;23.50;;;13.80;;
19940;SDS011;10132;50.864;5.176;2023-02-20T08:43:20;21.53;;;15.40;;
19940;SDS011;10132;50.864;5.176;2023-02-20T08:45:22;22.53;;;14.20;;
19940;SDS011;10132;50.864;5.176;2023-02-20T08:47:24;24.63;;;14.27;;
19940;SDS011;10132;50.864;5.176;2023-02-20T08:49:26;29.50;;;14.43;;
19940;SDS011;10132;50.864;5.176;2023-02-20T08:51:30;22.67;;;14.20;;
19940;SDS011;10132;50.864;5.176;2023-02-20T08:53:32;21.90;;;14.83;;
19940;SDS011;10132;50.864;5.176;2023-02-20T08:55:34;25.80;;;14.10;;
19940;SDS011;10132;50.864;5.176;2023-02-20T08:57:36;23.87;;;13.53;;
19940;SDS011;10132;50.864;5.176;2023-02-20T08:59:38;21.07;;;14.10;;
19940;SDS011;10132;50.864;5.176;2023-02-20T09:01:41;21.20;;;14.47;;
19940;SDS011;10132;50.864;5.176;2023-02-20T09:03:43;22.83;;;14.33;;
19940;SDS011;10132;50.864;5.176;2023-02-20T09:05:45;20.70;;;14.23;;
19940;SDS011;10132;50.864;5.176;2023-02-20T09:07:48;21.70;;;14.47;;
19940;SDS011;10132;50.864;5.176;2023-02-20T09:09:50;23.03;;;13.50;;
19940;SDS011;10132;50.864;5.176;2023-02-20T09:11:52;19.43;;;12.87;;
19940;SDS011;10132;50.864;5.176;2023-02-20T09:13:54;25.87;;;13.13;;
19940;SDS011;10132;50.864;5.176;2023-02-20T09:15:56;21.10;;;12.93;;
19940;SDS011;10132;50.864;5.176;2023-02-20T09:17:58;19.53;;;12.73;;
19940;SDS011;10132;50.864;5.176;2023-02-20T09:20:00;19.40;;;13.87;;
19940;SDS011;10132;50.864;5.176;2023-02-20T09:22:02;23.43;;;13.33;;
19940;SDS011;10132;50.864;5.176;2023-02-20T09:24:05;24.17;;;13.47;;
19940;SDS011;10132;50.864;5.176;2023-02-20T09:26:07;21.97;;;12.80;;
19940;SDS011;10132;50.864;5.176;2023-02-20T09:28:09;22.83;;;12.50;;
19940;SDS011;10132;50.864;5.176;2023-02-20T09:30:14;20.27;;;11.83;;
19940;SDS011;10132;50.864;5.176;2023-02-20T09:32:18;17.03;;;12.07;;
19940;SDS011;10132;50.864;5.176;2023-02-20T09:34:20;18.50;;;11.33;;
19940;SDS011;10132;50.864;5.176;2023-02-20T09:36:22;15.30;;;10.37;;
19940;SDS011;10132;50.864;5.176;2023-02-20T09:38:24;17.33;;;11.93;;
19940;SDS011;10132;50.864;5.176;2023-02-20T09:40:30;17.07;;;11.10;;
19940;SDS011;10132;50.864;5.176;2023-02-20T09:42:33;15.43;;;11.23;;
19940;SDS011;10132;50.864;5.176;2023-02-20T09:44:41;23.13;;;13.07;;
19940;SDS011;10132;50.864;5.176;2023-02-20T09:46:47;22.50;;;13.27;;
19940;SDS011;10132;50.864;5.176;2023-02-20T09:48:56;16.27;;;12.77;;
19940;SDS011;10132;50.864;5.176;2023-02-20T09:51:03;22.13;;;13.37;;
19940;SDS011;10132;50.864;5.176;2023-02-20T09:53:13;19.33;;;13.80;;
19940;SDS011;10132;50.864;5.176;2023-02-20T09:55:20;17.80;;;12.10;;
19940;SDS011;10132;50.864;5.176;2023-02-20T09:57:25;21.37;;;12.30;;
19940;SDS011;10132;50.864;5.176;2023-02-20T09:59:31;19.70;;;11.03;;
19940;SDS011;10132;50.864;5.176;2023-02-20T10:01:38;16.93;;;10.73;;
19940;SDS011;10132;50.864;5.176;2023-02-20T10:03:48;14.50;;;9.00;;
19940;SDS011;10132;50.864;5.176;2023-02-20T10:05:54;13.93;;;8.80;;
19940;SDS011;10132;50.864;5.176;2023-02-20T10:07:57;17.97;;;9.83;;
19940;SDS011;10132;50.864;5.176;2023-02-20T10:09:59;18.10;;;11.43;;
19940;SDS011;10132;50.864;5.176;2023-02-20T10:12:19;17.57;;;10.03;;
19940;SDS011;10132;50.864;5.176;2023-02-20T10:16:57;21.90;;;11.50;;
19940;SDS011;10132;50.864;5.176;2023-02-20T10:19:12;23.17;;;13.40;;
19940;SDS011;10132;50.864;5.176;2023-02-20T10:21:25;17.50;;;11.17;;
19940;SDS011;10132;50.864;5.176;2023-02-20T10:23:42;18.80;;;10.57;;
19940;SDS011;10132;50.864;5.176;2023-02-20T10:25:48;19.93;;;10.37;;
19940;SDS011;10132;50.864;5.176;2023-02-20T10:27:55;16.30;;;9.80;;
19940;SDS011;10132;50.864;5.176;2023-02-20T10:30:03;14.83;;;9.40;;
19940;SDS011;10132;50.864;5.176;2023-02-20T10:32:07;16.33;;;9.30;;
19940;SDS011;10132;50.864;5.176;2023-02-20T10:34:13;16.87;;;9.70;;
19940;SDS011;10132;50.864;5.176;2023-02-20T10:36:23;14.67;;;9.67;;
19940;SDS011;10132;50.864;5.176;2023-02-20T10:38:28;17.13;;;10.57;;
19940;SDS011;10132;50.864;5.176;2023-02-20T10:40:37;18.23;;;10.33;;
19940;SDS011;10132;50.864;5.176;2023-02-20T10:42:43;13.50;;;7.70;;
19940;SDS011;10132;50.864;5.176;2023-02-20T10:44:51;14.57;;;7.90;;
19940;SDS011;10132;50.864;5.176;2023-02-20T10:46:57;13.00;;;8.27;;
19940;SDS011;10132;50.864;5.176;2023-02-20T10:49:05;16.73;;;8.87;;
19940;SDS011;10132;50.864;5.176;2023-02-20T10:51:12;15.63;;;10.37;;
19940;SDS011;10132;50.864;5.176;2023-02-20T10:53:20;15.87;;;9.33;;
19940;SDS011;10132;50.864;5.176;2023-02-20T10:55:27;14.10;;;9.07;;
19940;SDS011;10132;50.864;5.176;2023-02-20T10:57:40;16.60;;;9.43;;
19940;SDS011;10132;50.864;5.176;2023-02-20T10:59:47;16.77;;;10.17;;
19940;SDS011;10132;50.864;5.176;2023-02-20T11:01:59;21.20;;;11.00;;
19940;SDS011;10132;50.864;5.176;2023-02-20T11:04:07;17.10;;;11.70;;
19940;SDS011;10132;50.864;5.176;2023-02-20T11:06:15;21.10;;;12.70;;
19940;SDS011;10132;50.864;5.176;2023-02-20T11:08:20;20.27;;;12.37;;
19940;SDS011;10132;50.864;5.176;2023-02-20T11:10:22;22.37;;;12.23;;
19940;SDS011;10132;50.864;5.176;2023-02-20T11:12:26;18.27;;;11.53;;
19940;SDS011;10132;50.864;5.176;2023-02-20T11:14:31;17.90;;;12.30;;
19940;SDS011;10132;50.864;5.176;2023-02-20T11:16:44;19.97;;;11.97;;
19940;SDS011;10132;50.864;5.176;2023-02-20T11:18:52;18.67;;;12.37;;
19940;SDS011;10132;50.864;5.176;2023-02-20T11:21:01;19.63;;;13.23;;
19940;SDS011;10132;50.864;5.176;2023-02-20T11:23:03;24.20;;;15.00;;
19940;SDS011;10132;50.864;5.176;2023-02-20T11:25:13;22.63;;;17.10;;
19940;SDS011;10132;50.864;5.176;2023-02-20T11:27:18;23.43;;;17.63;;
19940;SDS011;10132;50.864;5.176;2023-02-20T11:29:22;30.93;;;19.03;;
19940;SDS011;10132;50.864;5.176;2023-02-20T11:31:25;38.23;;;22.27;;
19940;SDS011;10132;50.864;5.176;2023-02-20T11:33:29;34.23;;;22.50;;
19940;SDS011;10132;50.864;5.176;2023-02-20T11:35:34;34.63;;;24.77;;
19940;SDS011;10132;50.864;5.176;2023-02-20T11:37:37;35.83;;;24.57;;
19940;SDS011;10132;50.864;5.176;2023-02-20T11:39:44;32.77;;;22.80;;
19940;SDS011;10132;50.864;5.176;2023-02-20T11:41:48;28.83;;;20.93;;
19940;SDS011;10132;50.864;5.176;2023-02-20T11:46:25;33.57;;;18.87;;
19940;SDS011;10132;50.864;5.176;2023-02-20T11:48:30;25.93;;;18.80;;
19940;SDS011;10132;50.864;5.176;2023-02-20T11:50:36;31.20;;;18.20;;
19940;SDS011;10132;50.864;5.176;2023-02-20T11:52:53;24.40;;;17.03;;
19940;SDS011;10132;50.864;5.176;2023-02-20T11:55:07;27.07;;;17.53;;
19940;SDS011;10132;50.864;5.176;2023-02-20T11:57:17;28.83;;;20.33;;
19940;SDS011;10132;50.864;5.176;2023-02-20T11:59:25;25.63;;;19.50;;
19940;SDS011;10132;50.864;5.176;2023-02-20T12:01:33;28.00;;;20.80;;
19940;SDS011;10132;50.864;5.176;2023-02-20T12:03:38;28.60;;;21.40;;
19940;SDS011;10132;50.864;5.176;2023-02-20T12:05:40;27.07;;;20.43;;
19940;SDS011;10132;50.864;5.176;2023-02-20T12:07:44;29.10;;;21.80;;
19940;SDS011;10132;50.864;5.176;2023-02-20T12:09:56;29.60;;;20.90;;
19940;SDS011;10132;50.864;5.176;2023-02-20T12:12:04;33.13;;;20.70;;
19940;SDS011;10132;50.864;5.176;2023-02-20T12:14:09;26.57;;;21.60;;
19940;SDS011;10132;50.864;5.176;2023-02-20T12:16:21;25.10;;;18.37;;
19940;SDS011;10132;50.864;5.176;2023-02-20T12:18:35;29.90;;;20.87;;
19940;SDS011;10132;50.864;5.176;2023-02-20T12:20:46;27.00;;;20.30;;
19940;SDS011;10132;50.864;5.176;2023-02-20T12:22:55;26.27;;;18.63;;
19940;SDS011;10132;50.864;5.176;2023-02-20T12:25:11;25.63;;;18.30;;
19940;SDS011;10132;50.864;5.176;2023-02-20T12:27:25;23.93;;;17.90;;
19940;SDS011;10132;50.864;5.176;2023-02-20T12:29:41;22.50;;;16.90;;